Time;durP1;ratioP1;P1;durP2;ratioP2;P2;SDS_P1;SDS_P2;PMS_P1;PMS_P2;Temp;Humidity;BMP_temperature;BMP_pressure;BME280_temperature;BME280_humidity;BME280_pressure;Samples;Min_cycle;Max_cycle;Signal;HPM_P1;HPM_P2
2022/01/05 00:01:30;;;;;;;39.03;29.13;;;;;;;3.75;68.90;94360.97;6170725;23;20198;-65
2022/01/05 00:03:56;;;;;;;38.07;29.07;;;;;;;3.69;68.84;94361.50;6169555;23;20206;-66
2022/01/05 00:06:21;;;;;;;34.53;27.60;;;;;;;3.69;69.07;94363.28;6169780;23;20220;-64
2022/01/05 00:08:47;;;;;;;38.20;29.87;;;;;;;3.74;69.03;94366.28;6196537;23;20170;-65
2022/01/05 00:11:13;;;;;;;36.37;29.00;;;;;;;3.73;68.96;94365.47;6170683;23;20194;-64
2022/01/05 00:13:38;;;;;;;37.73;29.87;;;;;;;3.75;68.57;94360.97;6170287;23;20223;-67
2022/01/05 00:16:04;;;;;;;38.27;28.60;;;;;;;3.51;69.03;94348.22;6169301;23;20202;-63
2022/01/05 00:18:31;;;;;;;37.37;28.00;;;;;;;3.34;69.57;94361.75;6170068;23;20189;-65
2022/01/05 00:20:57;;;;;;;35.27;27.83;;;;;;;3.51;69.55;94365.59;6170302;23;20214;-66
2022/01/05 00:23:23;;;;;;;35.63;27.93;;;;;;;3.62;68.96;94362.13;6168987;23;20210;-63
2022/01/05 00:25:48;;;;;;;35.87;28.70;;;;;;;3.44;69.58;94367.03;6169107;23;20257;-63
2022/01/05 00:28:14;;;;;;;38.00;28.00;;;;;;;3.54;69.32;94373.97;6195948;23;20204;-65
2022/01/05 00:30:39;;;;;;;35.73;28.10;;;;;;;3.67;68.94;94366.00;6170781;23;20201;-65
2022/01/05 00:33:06;;;;;;;40.87;27.87;;;;;;;3.62;68.55;94367.31;6170762;23;20171;-63
2022/01/05 00:35:32;;;;;;;36.07;28.00;;;;;;;3.71;68.95;94362.16;6195203;23;20210;-64
2022/01/05 00:37:57;;;;;;;36.03;26.70;;;;;;;3.61;68.87;94357.84;6168892;23;20193;-65
2022/01/05 00:40:23;;;;;;;37.30;27.13;;;;;;;3.67;68.65;94367.78;6167681;23;20248;-64
2022/01/05 00:42:48;;;;;;;33.73;26.87;;;;;;;3.79;68.44;94368.53;6169479;23;20229;-65
2022/01/05 00:45:14;;;;;;;36.43;26.77;;;;;;;3.56;68.63;94362.63;6196981;23;20205;-67
2022/01/05 00:47:40;;;;;;;35.00;26.73;;;;;;;3.62;68.39;94362.13;6196205;23;20253;-67
2022/01/05 00:50:05;;;;;;;29.33;25.13;;;;;;;3.47;69.29;94351.19;6196055;23;20194;-63
2022/01/05 00:52:31;;;;;;;33.00;26.20;;;;;;;3.38;69.47;94350.16;6195756;23;20194;-64
2022/01/05 00:54:56;;;;;;;35.27;27.20;;;;;;;3.43;69.42;94355.00;6195008;23;20194;-66
2022/01/05 00:57:22;;;;;;;32.37;25.07;;;;;;;3.63;68.48;94361.97;6169374;23;20190;-64
2022/01/05 00:59:47;;;;;;;26.63;22.93;;;;;;;3.67;68.47;94359.97;6169947;23;20207;-64
2022/01/05 01:02:13;;;;;;;29.80;24.27;;;;;;;3.58;68.81;94339.91;6168845;23;20248;-63
2022/01/05 01:04:38;;;;;;;31.20;23.07;;;;;;;3.44;68.86;94343.63;6170037;23;20200;-64
2022/01/05 01:07:04;;;;;;;30.63;22.10;;;;;;;3.50;68.69;94341.38;6169935;23;20278;-63
2022/01/05 01:09:29;;;;;;;28.73;21.30;;;;;;;3.47;68.77;94330.38;6169841;23;20234;-63
2022/01/05 01:11:55;;;;;;;23.23;19.07;;;;;;;3.53;68.76;94338.53;6195053;23;20178;-65
2022/01/05 01:14:20;;;;;;;25.43;19.67;;;;;;;3.53;68.75;94340.31;6195138;23;20269;-64
2022/01/05 01:16:46;;;;;;;25.53;19.53;;;;;;;3.52;69.00;94329.06;6167683;23;20194;-67
2022/01/05 01:19:12;;;;;;;22.73;18.60;;;;;;;3.61;68.98;94339.66;6169037;23;20205;-63
2022/01/05 01:21:37;;;;;;;22.13;18.00;;;;;;;3.64;69.00;94340.25;6169112;23;20206;-63
2022/01/05 01:24:04;;;;;;;25.70;19.20;;;;;;;3.67;68.80;94345.19;6170074;23;20190;-63
2022/01/05 01:26:30;;;;;;;28.17;19.90;;;;;;;3.67;68.86;94352.16;6192842;23;20202;-63
2022/01/05 01:28:58;;;;;;;28.70;20.60;;;;;;;3.66;68.88;94342.69;6191691;23;20209;-65
2022/01/05 01:31:24;;;;;;;23.37;19.03;;;;;;;3.62;68.75;94330.91;6168374;23;20233;-63
2022/01/05 01:33:50;;;;;;;21.50;17.67;;;;;;;3.63;68.70;94340.34;6193100;23;20201;-64
2022/01/05 01:36:16;;;;;;;24.23;20.60;;;;;;;3.48;68.78;94330.28;6193622;23;20186;-63
2022/01/05 01:38:42;;;;;;;24.43;18.80;;;;;;;3.48;69.38;94334.66;6169431;23;20201;-67
2022/01/05 01:41:09;;;;;;;25.13;19.30;;;;;;;3.48;69.15;94322.47;6169935;23;20218;-66
2022/01/05 01:43:35;;;;;;;24.27;18.83;;;;;;;3.48;69.29;94321.66;6169139;23;20202;-65
2022/01/05 01:46:00;;;;;;;21.43;18.33;;;;;;;3.44;69.67;94323.66;6169668;23;20190;-63
2022/01/05 01:48:26;;;;;;;21.30;17.73;;;;;;;3.41;69.46;94325.69;6168826;23;20189;-65
2022/01/05 01:50:52;;;;;;;20.10;17.40;;;;;;;3.57;69.48;94333.06;6169750;23;20249;-67
2022/01/05 01:53:18;;;;;;;22.00;17.50;;;;;;;3.60;69.44;94319.81;6169748;23;20198;-63
2022/01/05 01:55:43;;;;;;;19.57;16.30;;;;;;;3.50;69.22;94312.78;6194780;23;20198;-67
2022/01/05 01:58:09;;;;;;;20.80;16.63;;;;;;;3.48;69.35;94322.47;6169691;23;20208;-66
2022/01/05 02:00:35;;;;;;;20.87;16.57;;;;;;;3.52;69.20;94316.06;6169695;23;20182;-63
2022/01/05 02:03:01;;;;;;;18.27;16.30;;;;;;;3.52;69.08;94317.84;6195265;23;20192;-63
2022/01/05 02:05:27;;;;;;;22.20;16.23;;;;;;;3.71;69.05;94319.75;6194708;23;20194;-66
2022/01/05 02:07:52;;;;;;;20.80;16.00;;;;;;;3.76;68.19;94325.38;6168627;23;20225;-66
2022/01/05 02:10:18;;;;;;;18.50;16.20;;;;;;;3.77;68.30;94319.25;6169132;23;20260;-65
2022/01/05 02:12:43;;;;;;;20.30;16.33;;;;;;;3.69;68.64;94319.06;6168662;23;20189;-65
2022/01/05 02:15:10;;;;;;;21.37;15.57;;;;;;;3.76;68.72;94315.81;6196227;23;20176;-64
2022/01/05 02:18:08;;;;;;;19.10;15.03;;;;;;;3.80;68.07;94313.78;6169666;23;20205;-66
2022/01/05 02:20:34;;;;;;;19.50;15.37;;;;;;;3.69;68.62;94309.50;6195019;23;20224;-63
2022/01/05 02:22:59;;;;;;;20.43;15.63;;;;;;;3.76;68.71;94312.38;6194086;23;20206;-64
2022/01/05 02:25:26;;;;;;;22.20;16.23;;;;;;;3.69;68.84;94314.69;6168605;23;20203;-65
2022/01/05 02:27:54;;;;;;;19.90;15.20;;;;;;;3.83;68.57;94316.13;6168422;23;20221;-64
2022/01/05 02:30:26;;;;;;;21.13;15.70;;;;;;;3.88;68.37;94303.56;6168194;23;20177;-64
2022/01/05 02:32:53;;;;;;;21.87;15.50;;;;;;;3.93;67.74;94301.41;6169674;23;20178;-64
2022/01/05 02:35:19;;;;;;;18.77;14.97;;;;;;;3.83;68.27;94295.34;6168662;23;20194;-66
2022/01/05 02:37:49;;;;;;;20.17;15.83;;;;;;;3.73;68.18;94297.88;6193884;23;20216;-66
2022/01/05 02:40:17;;;;;;;17.70;14.93;;;;;;;3.52;69.36;94300.47;6194293;23;20202;-65
2022/01/05 02:42:43;;;;;;;21.00;16.63;;;;;;;3.41;69.75;94290.13;6192452;23;20226;-64
2022/01/05 02:45:10;;;;;;;19.90;17.73;;;;;;;3.45;69.26;94301.94;6193500;23;20197;-65
2022/01/05 02:47:36;;;;;;;24.63;18.43;;;;;;;3.56;69.06;94295.03;6193064;23;20201;-65
2022/01/05 02:50:04;;;;;;;27.20;18.93;;;;;;;3.28;68.68;94295.50;6168673;23;20213;-67
2022/01/05 02:52:29;;;;;;;22.10;16.93;;;;;;;3.23;69.56;94294.25;6168776;23;20264;-64
2022/01/05 02:54:55;;;;;;;23.13;18.63;;;;;;;3.17;69.18;94281.75;6166742;23;21118;-64
2022/01/05 02:57:20;;;;;;;21.80;17.77;;;;;;;3.26;68.99;94281.00;6166709;23;20190;-64
2022/01/05 02:59:46;;;;;;;24.40;19.10;;;;;;;3.13;69.53;94275.16;6167053;23;20188;-64
2022/01/05 03:02:11;;;;;;;22.67;18.13;;;;;;;2.95;70.27;94278.31;6168794;23;20275;-67
2022/01/05 03:04:37;;;;;;;20.93;17.17;;;;;;;3.05;70.15;94281.81;6168458;23;20217;-64
2022/01/05 03:07:02;;;;;;;22.80;16.70;;;;;;;3.21;69.60;94283.16;6194934;23;20205;-66
2022/01/05 03:09:28;;;;;;;20.33;17.27;;;;;;;3.32;68.91;94280.50;6168847;23;20194;-67
2022/01/05 03:11:54;;;;;;;23.37;19.77;;;;;;;3.29;68.55;94278.16;6169186;23;20234;-64
2022/01/05 03:14:20;;;;;;;21.70;17.43;;;;;;;3.18;68.78;94283.41;6194297;23;20213;-63
2022/01/05 03:16:45;;;;;;;22.13;17.77;;;;;;;3.18;69.35;94270.41;6168049;23;20202;-66
2022/01/05 03:19:11;;;;;;;23.13;16.77;;;;;;;3.24;68.94;94273.34;6194574;23;20236;-67
2022/01/05 03:21:36;;;;;;;22.77;18.07;;;;;;;3.25;68.84;94276.75;6167361;23;20190;-65
2022/01/05 03:24:02;;;;;;;21.03;17.97;;;;;;;3.11;69.10;94279.66;6169150;23;20192;-64
2022/01/05 03:26:28;;;;;;;23.47;18.60;;;;;;;2.95;69.59;94286.09;6169034;23;20190;-64
2022/01/05 03:28:53;;;;;;;22.53;18.33;;;;;;;2.76;69.57;94284.16;6168847;23;20202;-64
2022/01/05 03:31:19;;;;;;;25.50;19.10;;;;;;;2.63;70.04;94278.28;6167804;23;20249;-63
2022/01/05 03:33:44;;;;;;;21.87;18.33;;;;;;;2.71;70.03;94280.28;6167991;23;20190;-65
2022/01/05 03:36:10;;;;;;;22.67;17.90;;;;;;;2.86;69.75;94279.88;6168917;23;20225;-67
2022/01/05 03:38:36;;;;;;;20.30;18.20;;;;;;;2.71;69.88;94282.88;6167467;23;20220;-64
2022/01/05 03:41:02;;;;;;;22.40;18.67;;;;;;;2.71;70.06;94275.09;6193274;23;20221;-64
2022/01/05 03:43:27;;;;;;;21.87;18.93;;;;;;;2.75;69.91;94281.66;6194767;23;20244;-63
2022/01/05 03:45:53;;;;;;;20.63;18.40;;;;;;;2.91;69.32;94287.28;6168572;23;20201;-63
2022/01/05 03:48:19;;;;;;;20.40;18.23;;;;;;;3.02;69.16;94276.88;6168528;23;20178;-68
2022/01/05 03:50:46;;;;;;;23.20;18.60;;;;;;;3.07;68.58;94287.72;6196299;23;20178;-66
2022/01/05 03:53:11;;;;;;;22.57;18.40;;;;;;;3.03;69.50;94275.91;6195752;23;20287;-63
2022/01/05 03:55:39;;;;;;;23.63;19.37;;;;;;;3.00;69.14;94276.16;6169923;23;20221;-63
2022/01/05 03:58:05;;;;;;;24.00;19.37;;;;;;;3.05;69.08;94279.22;6196473;23;20274;-64
2022/01/05 04:00:34;;;;;;;22.30;17.13;;;;;;;3.02;69.19;94284.66;6170736;23;20186;-65
2022/01/05 04:03:00;;;;;;;25.33;18.27;;;;;;;2.83;69.56;94282.72;6171365;23;20240;-63
2022/01/05 04:05:28;;;;;;;23.30;18.33;;;;;;;2.79;69.67;94283.91;6169647;23;20202;-63
2022/01/05 04:07:53;;;;;;;22.63;18.87;;;;;;;2.76;70.00;94272.94;6169217;23;20234;-64
2022/01/05 04:10:19;;;;;;;24.60;17.53;;;;;;;2.80;70.19;94275.16;6169923;23;20205;-64
2022/01/05 04:12:45;;;;;;;22.80;17.13;;;;;;;2.82;69.69;94251.69;6169510;23;20221;-64
2022/01/05 04:15:10;;;;;;;22.43;18.27;;;;;;;2.94;69.42;94261.09;6196537;23;20305;-64
2022/01/05 04:17:36;;;;;;;19.13;16.07;;;;;;;2.73;70.34;94262.81;6170169;23;20197;-64
2022/01/05 04:20:03;;;;;;;21.90;17.47;;;;;;;2.69;70.72;94258.81;6171052;23;20201;-67
2022/01/05 04:22:29;;;;;;;21.27;17.37;;;;;;;2.89;70.40;94252.84;6169719;23;20221;-65
2022/01/05 04:24:54;;;;;;;22.43;16.53;;;;;;;2.84;70.37;94253.19;6169946;23;20201;-62
2022/01/05 04:27:20;;;;;;;22.77;17.87;;;;;;;2.82;70.22;94236.91;6169640;23;20218;-62
2022/01/05 04:29:46;;;;;;;24.90;17.17;;;;;;;2.91;70.36;94232.75;6194934;23;20174;-63
2022/01/05 04:32:12;;;;;;;18.97;15.67;;;;;;;2.87;70.36;94242.56;6169133;23;20273;-64
2022/01/05 04:34:38;;;;;;;21.23;17.00;;;;;;;2.79;70.54;94246.75;6169933;23;20194;-63
2022/01/05 04:37:04;;;;;;;23.30;17.13;;;;;;;2.70;70.68;94257.84;6195833;23;20221;-64
2022/01/05 04:39:30;;;;;;;23.80;18.17;;;;;;;2.65;70.82;94253.88;6169929;23;20177;-64
2022/01/05 04:41:55;;;;;;;20.50;16.67;;;;;;;2.57;70.54;94261.44;6195528;23;20178;-65
2022/01/05 04:44:21;;;;;;;22.93;19.47;;;;;;;2.50;70.80;94260.25;6169679;23;20194;-64
2022/01/05 04:46:46;;;;;;;22.23;18.53;;;;;;;2.11;71.62;94259.88;6166808;23;20197;-68
2022/01/05 04:49:12;;;;;;;21.13;18.07;;;;;;;2.25;71.94;94260.56;6168759;23;20224;-64
2022/01/05 04:51:38;;;;;;;23.90;18.33;;;;;;;2.45;71.22;94259.81;6168676;23;20261;-63
2022/01/05 04:54:04;;;;;;;27.80;18.87;;;;;;;2.58;70.21;94255.28;6170630;23;20204;-65
2022/01/05 04:56:30;;;;;;;25.63;18.97;;;;;;;2.35;71.03;94270.09;6194457;23;20194;-64
2022/01/05 04:58:56;;;;;;;23.20;18.00;;;;;;;2.35;71.17;94270.09;6195833;23;20209;-63
2022/01/05 05:01:23;;;;;;;23.97;18.47;;;;;;;2.43;71.21;94270.31;6194473;23;20213;-64
2022/01/05 05:03:49;;;;;;;23.77;19.93;;;;;;;2.38;71.05;94263.84;6168004;23;20206;-63
2022/01/05 05:06:14;;;;;;;27.17;19.97;;;;;;;2.24;71.32;94272.69;6167396;23;20213;-64
2022/01/05 05:08:40;;;;;;;25.50;20.73;;;;;;;2.28;71.43;94278.47;6167217;23;20313;-63
2022/01/05 05:11:05;;;;;;;25.80;20.53;;;;;;;2.29;71.48;94288.72;6168645;23;20209;-64
2022/01/05 05:13:31;;;;;;;26.47;19.17;;;;;;;2.25;71.88;94289.09;6167114;23;20198;-65
2022/01/05 05:15:56;;;;;;;27.77;20.17;;;;;;;2.39;72.19;94294.84;6166975;23;20265;-64
2022/01/05 05:18:22;;;;;;;27.93;20.77;;;;;;;2.36;71.25;94283.88;6166351;23;20177;-65
2022/01/05 05:20:47;;;;;;;23.53;18.10;;;;;;;2.52;72.17;94294.72;6168481;23;20249;-64
2022/01/05 05:23:13;;;;;;;25.20;19.43;;;;;;;2.69;72.41;94302.94;6168969;23;20201;-66
2022/01/05 05:25:38;;;;;;;21.83;17.70;;;;;;;2.80;71.96;94303.72;6193595;23;20202;-65
2022/01/05 05:28:04;;;;;;;23.77;18.07;;;;;;;2.86;71.66;94299.81;6195465;23;20217;-64
2022/01/05 05:30:29;;;;;;;25.73;18.30;;;;;;;2.62;71.18;94313.00;6168304;23;20189;-64
2022/01/05 05:32:57;;;;;;;23.87;18.40;;;;;;;2.57;71.57;94305.56;6165832;23;20190;-64
2022/01/05 05:35:26;;;;;;;23.30;17.33;;;;;;;2.53;71.60;94306.72;6165125;23;20216;-63
2022/01/05 05:37:52;;;;;;;25.00;18.73;;;;;;;2.55;71.11;94314.41;6163475;23;20210;-63
2022/01/05 05:40:17;;;;;;;26.87;19.13;;;;;;;2.60;70.20;94312.28;6164290;23;20248;-63
2022/01/05 05:42:43;;;;;;;26.03;19.13;;;;;;;2.47;70.61;94303.81;6163853;23;20193;-63
2022/01/05 05:45:09;;;;;;;22.57;19.17;;;;;;;2.34;71.28;94291.78;6165905;23;20192;-63
2022/01/05 05:47:34;;;;;;;25.77;17.60;;;;;;;2.40;71.30;94303.44;6164675;23;20279;-63
2022/01/05 05:50:00;;;;;;;27.33;18.07;;;;;;;2.35;71.33;94305.56;6166876;23;20244;-65
2022/01/05 05:52:26;;;;;;;28.40;22.87;;;;;;;2.18;72.18;94312.06;6166398;23;20206;-63
2022/01/05 05:54:52;;;;;;;26.23;21.07;;;;;;;2.23;72.15;94311.72;6193679;23;20252;-64
2022/01/05 05:57:18;;;;;;;28.87;21.37;;;;;;;2.41;72.24;94311.13;6193734;23;20186;-67
2022/01/05 05:59:44;;;;;;;27.50;20.13;;;;;;;2.52;71.56;94312.88;6167039;23;20170;-63
2022/01/05 06:02:09;;;;;;;29.33;20.83;;;;;;;2.62;71.54;94313.81;6166998;23;20193;-64
2022/01/05 06:04:35;;;;;;;30.87;21.93;;;;;;;2.62;71.47;94311.22;6168058;23;20208;-64
2022/01/05 06:07:00;;;;;;;29.70;21.77;;;;;;;2.65;71.64;94304.97;6194190;23;20263;-65
2022/01/05 06:09:26;;;;;;;28.40;22.07;;;;;;;2.60;71.87;94307.91;6168368;23;20241;-65
2022/01/05 06:11:52;;;;;;;24.90;19.20;;;;;;;2.58;71.41;94299.41;6168579;23;20212;-66
2022/01/05 06:14:17;;;;;;;22.57;18.73;;;;;;;2.56;71.84;94314.28;6168157;23;20244;-66
2022/01/05 06:16:43;;;;;;;23.33;18.33;;;;;;;2.70;71.31;94312.34;6168468;23;20194;-65
2022/01/05 06:19:09;;;;;;;22.07;17.53;;;;;;;2.75;71.90;94313.63;6194290;23;20194;-67
2022/01/05 06:21:35;;;;;;;23.87;16.73;;;;;;;2.86;71.10;94311.03;6194688;23;20170;-67
2022/01/05 06:24:01;;;;;;;19.63;15.93;;;;;;;2.85;71.28;94317.16;6169257;23;20200;-64
2022/01/05 06:26:26;;;;;;;20.03;15.23;;;;;;;3.00;71.23;94324.69;6167207;23;20197;-64
2022/01/05 06:28:52;;;;;;;18.60;15.57;;;;;;;2.97;71.00;94327.53;6167673;23;20205;-64
2022/01/05 06:31:18;;;;;;;30.47;17.83;;;;;;;2.97;71.03;94330.94;6194019;23;20201;-64
2022/01/05 06:33:43;;;;;;;21.97;18.73;;;;;;;2.92;71.45;94325.31;6167333;23;20249;-65
2022/01/05 06:36:08;;;;;;;26.33;19.70;;;;;;;3.02;70.81;94331.41;6193448;23;20178;-65
2022/01/05 06:38:34;;;;;;;23.07;20.53;;;;;;;2.86;70.74;94320.56;6193101;23;20236;-65
2022/01/05 06:41:00;;;;;;;27.07;19.93;;;;;;;2.93;70.95;94324.34;6168446;23;20217;-63
2022/01/05 06:43:25;;;;;;;23.87;18.97;;;;;;;2.95;70.79;94316.44;6194050;23;20206;-67
2022/01/05 06:45:51;;;;;;;23.90;19.50;;;;;;;3.05;70.76;94320.78;6167262;23;20215;-66
2022/01/05 06:48:16;;;;;;;22.90;18.07;;;;;;;3.10;70.53;94333.38;6194044;23;20233;-66
2022/01/05 06:50:42;;;;;;;28.30;20.03;;;;;;;3.07;70.79;94333.63;6167879;23;20252;-64
2022/01/05 06:53:08;;;;;;;25.63;19.00;;;;;;;3.06;70.36;94334.59;6193058;23;20284;-65
2022/01/05 06:55:33;;;;;;;24.80;19.93;;;;;;;2.94;70.45;94327.75;6167501;23;20201;-66
2022/01/05 06:57:59;;;;;;;26.67;21.17;;;;;;;2.93;70.48;94321.75;6192747;23;20254;-64
2022/01/05 07:00:26;;;;;;;29.50;20.43;;;;;;;2.88;71.04;94314.31;6192152;23;20170;-68
2022/01/05 07:02:52;;;;;;;25.57;21.20;;;;;;;3.01;70.70;94319.34;6193948;23;20204;-65
2022/01/05 07:05:17;;;;;;;25.73;20.70;;;;;;;3.01;71.36;94329.75;6167342;23;20206;-62
2022/01/05 07:07:43;;;;;;;25.37;19.63;;;;;;;3.17;70.92;94324.16;6166754;23;20214;-65
2022/01/05 07:10:10;;;;;;;27.03;21.17;;;;;;;3.33;70.48;94321.13;6167500;23;20245;-66
2022/01/05 07:12:37;;;;;;;30.30;21.30;;;;;;;3.61;69.51;94324.91;6192922;23;20178;-65
2022/01/05 07:15:03;;;;;;;25.33;21.30;;;;;;;3.59;69.95;94326.78;6167692;23;20186;-67
2022/01/05 07:17:29;;;;;;;33.20;21.57;;;;;;;3.87;68.92;94327.09;6192406;23;20213;-64
2022/01/05 07:19:54;;;;;;;29.63;21.07;;;;;;;3.91;68.60;94320.69;6166931;23;20203;-64
2022/01/05 07:22:20;;;;;;;32.47;22.23;;;;;;;3.88;68.45;94324.38;6191535;23;20225;-67
2022/01/05 07:24:46;;;;;;;27.90;21.73;;;;;;;3.94;68.28;94325.63;6168185;23;20255;-64
2022/01/05 07:27:11;;;;;;;32.57;22.00;;;;;;;3.92;68.29;94340.53;6170272;23;20193;-64
2022/01/05 07:29:37;;;;;;;26.53;20.97;;;;;;;4.01;67.87;94331.13;6168521;23;20213;-65
2022/01/05 07:32:03;;;;;;;28.80;20.87;;;;;;;4.15;67.68;94341.22;6195336;23;20252;-67
2022/01/05 07:34:28;;;;;;;30.70;22.17;;;;;;;4.26;67.79;94342.94;6169189;23;20194;-66
2022/01/05 07:36:54;;;;;;;32.60;22.27;;;;;;;4.30;67.70;94328.69;6168267;23;20301;-66
2022/01/05 07:39:19;;;;;;;36.77;23.43;;;;;;;4.39;67.04;94333.13;6169330;23;20181;-63
2022/01/05 07:41:45;;;;;;;31.53;23.40;;;;;;;4.52;67.08;94335.50;6169386;23;20213;-65
2022/01/05 07:44:11;;;;;;;30.33;22.17;;;;;;;4.55;67.17;94332.63;6169293;23;20198;-64
2022/01/05 07:46:36;;;;;;;36.93;24.50;;;;;;;4.75;66.22;94344.75;6195155;23;20198;-64
2022/01/05 07:49:03;;;;;;;32.00;24.23;;;;;;;4.83;66.03;94341.47;6195680;23;20194;-63
2022/01/05 07:51:29;;;;;;;32.40;24.27;;;;;;;4.91;65.64;94331.19;6195869;23;20192;-65
2022/01/05 07:53:55;;;;;;;32.10;24.03;;;;;;;4.92;65.51;94330.25;6170049;23;20186;-64
2022/01/05 07:56:20;;;;;;;29.90;23.53;;;;;;;5.01;65.23;94339.03;6168726;23;20229;-64
2022/01/05 07:58:47;;;;;;;34.90;26.10;;;;;;;5.04;64.86;94333.56;6169833;23;20213;-65
2022/01/05 08:01:16;;;;;;;42.63;30.43;;;;;;;5.07;64.63;94336.72;6194643;23;20206;-66
2022/01/05 08:03:41;;;;;;;44.40;34.47;;;;;;;5.08;64.14;94340.16;6193263;23;20189;-63
2022/01/05 08:06:07;;;;;;;41.07;34.10;;;;;;;5.09;64.26;94336.59;6169961;23;20197;-65
2022/01/05 08:08:32;;;;;;;40.83;32.17;;;;;;;5.24;63.96;94337.84;6170330;23;20201;-62
2022/01/05 08:10:58;;;;;;;43.40;31.40;;;;;;;5.26;63.52;94337.69;6194883;23;20210;-66
2022/01/05 08:13:24;;;;;;;39.77;30.67;;;;;;;5.36;63.66;94343.75;6170035;23;20198;-66
2022/01/05 08:15:51;;;;;;;40.77;28.87;;;;;;;5.38;63.51;94348.84;6195267;23;20301;-66
2022/01/05 08:18:16;;;;;;;37.20;29.93;;;;;;;5.39;63.67;94351.28;6170673;23;20193;-65
2022/01/05 08:20:42;;;;;;;36.80;29.23;;;;;;;5.47;63.74;94340.19;6195169;23;20198;-64
2022/01/05 08:23:07;;;;;;;32.60;26.40;;;;;;;5.51;63.46;94346.78;6169630;23;20194;-64
2022/01/05 08:25:33;;;;;;;33.83;24.50;;;;;;;5.53;63.45;94343.06;6170228;23;20202;-63
2022/01/05 08:27:58;;;;;;;34.63;26.40;;;;;;;5.57;63.77;94346.22;6169447;23;20213;-63
2022/01/05 08:30:25;;;;;;;32.30;25.03;;;;;;;5.59;63.48;94333.88;6168647;23;20221;-64
2022/01/05 08:32:53;;;;;;;29.40;23.80;;;;;;;5.79;63.06;94333.84;6194051;23;20193;-65
2022/01/05 08:35:21;;;;;;;31.07;23.33;;;;;;;5.90;62.44;94325.84;6193593;23;20213;-64
2022/01/05 08:37:48;;;;;;;28.77;21.53;;;;;;;6.03;62.14;94336.84;6168332;23;20248;-66
2022/01/05 08:40:22;;;;;;;29.20;21.50;;;;;;;6.10;62.37;94322.28;6194281;23;20209;-66
2022/01/05 08:42:49;;;;;;;25.60;19.93;;;;;;;6.06;62.29;94323.53;6169469;23;20189;-65
2022/01/05 08:45:16;;;;;;;24.33;18.70;;;;;;;6.28;61.34;94337.19;6170276;23;20241;-66
2022/01/05 08:47:47;;;;;;;20.50;15.27;;;;;;;6.35;60.53;94333.88;6168258;23;20194;-65
2022/01/05 08:50:14;;;;;;;20.30;14.10;;;;;;;6.50;59.81;94339.47;6169677;23;20206;-65
2022/01/05 08:52:40;;;;;;;20.63;12.93;;;;;;;6.54;59.63;94327.75;6168789;23;20194;-64
2022/01/05 08:55:06;;;;;;;20.80;13.37;;;;;;;6.52;59.78;94334.94;6169243;23;20206;-65
2022/01/05 08:57:31;;;;;;;28.87;14.63;;;;;;;6.53;59.76;94335.75;6194297;23;20190;-63
2022/01/05 08:59:57;;;;;;;18.17;13.37;;;;;;;6.58;59.10;94330.91;6169115;23;20182;-63
2022/01/05 09:02:23;;;;;;;21.93;14.20;;;;;;;6.59;58.85;94333.38;6169211;23;20385;-63
2022/01/05 09:04:51;;;;;;;19.87;13.90;;;;;;;6.55;58.86;94328.59;6167988;23;20205;-64
2022/01/05 09:07:18;;;;;;;15.00;13.23;;;;;;;6.66;59.20;94317.97;6163341;23;20230;-65
2022/01/05 09:09:44;;;;;;;17.50;13.33;;;;;;;6.79;58.49;94321.06;6163930;23;20203;-65
2022/01/05 09:12:10;;;;;;;19.57;15.70;;;;;;;6.87;57.59;94309.88;6163005;23;20229;-65
2022/01/05 09:14:36;;;;;;;15.67;12.17;;;;;;;6.88;57.76;94302.84;6163895;23;20320;-66
2022/01/05 09:17:02;;;;;;;16.00;13.87;;;;;;;6.99;57.58;94313.09;6189287;23;20195;-65
2022/01/05 09:19:31;;;;;;;20.57;14.03;;;;;;;7.04;57.13;94306.44;6163563;23;20210;-64
2022/01/05 09:21:56;;;;;;;16.40;12.33;;;;;;;7.06;56.99;94308.94;6188278;23;20253;-65
2022/01/05 09:24:22;;;;;;;12.83;11.47;;;;;;;7.19;56.77;94317.25;6162531;23;20187;-64
2022/01/05 09:26:47;;;;;;;15.73;11.53;;;;;;;7.29;56.57;94296.22;6163430;23;20209;-67
2022/01/05 09:29:13;;;;;;;16.20;11.23;;;;;;;7.42;56.10;94293.25;6187792;23;20218;-64
2022/01/05 09:31:38;;;;;;;14.57;10.93;;;;;;;7.55;55.93;94291.06;6161344;23;20259;-67
2022/01/05 09:34:06;;;;;;;13.70;10.30;;;;;;;7.57;55.74;94293.53;6162558;23;20225;-65
2022/01/05 09:36:40;;;;;;;13.57;9.83;;;;;;;7.57;55.72;94285.69;6164352;23;20271;-68
2022/01/05 09:41:56;;;;;;;12.43;10.23;;;;;;;7.89;54.88;94275.47;6163808;23;20279;-64
2022/01/05 09:44:26;;;;;;;16.23;10.43;;;;;;;7.96;54.76;94270.41;6162035;23;20202;-64
2022/01/05 09:47:10;;;;;;;14.30;11.50;;;;;;;8.10;54.86;94264.63;6163628;23;20210;-65
2022/01/05 09:49:38;;;;;;;16.07;10.50;;;;;;;8.15;54.28;94264.16;6163825;23;20208;-62
2022/01/05 09:52:09;;;;;;;14.50;11.13;;;;;;;8.31;53.98;94263.41;6165214;23;20194;-63
2022/01/05 09:54:37;;;;;;;15.37;11.57;;;;;;;8.38;53.64;94260.00;6162968;23;20174;-62
2022/01/05 09:57:03;;;;;;;16.27;9.83;;;;;;;8.49;53.38;94261.56;6188038;23;20199;-64
2022/01/05 09:59:33;;;;;;;14.47;9.97;;;;;;;8.54;52.98;94240.97;6187482;23;20206;-65
2022/01/05 10:01:58;;;;;;;15.40;10.53;;;;;;;8.52;53.58;94237.66;6188473;23;20276;-66
2022/01/05 10:04:24;;;;;;;21.57;11.90;;;;;;;8.74;52.93;94243.31;6163575;23;20211;-65
2022/01/05 10:06:50;;;;;;;13.77;9.60;;;;;;;8.84;52.42;94246.63;6162780;23;20214;-66
2022/01/05 10:09:16;;;;;;;14.63;9.20;;;;;;;8.90;52.19;94235.50;6165948;23;20171;-65
2022/01/05 10:11:42;;;;;;;12.83;8.10;;;;;;;8.98;51.91;94234.69;6163630;23;20206;-66
2022/01/05 10:14:11;;;;;;;11.17;8.90;;;;;;;9.15;51.16;94228.50;6163701;23;20194;-65
2022/01/05 10:16:37;;;;;;;14.47;8.37;;;;;;;9.23;50.70;94228.50;6163295;23;20195;-63
2022/01/05 10:19:03;;;;;;;12.13;8.93;;;;;;;9.35;51.02;94230.78;6164287;23;20273;-64
2022/01/05 10:21:38;;;;;;;11.30;8.80;;;;;;;9.38;51.02;94210.31;6163552;23;20183;-67
2022/01/05 10:24:05;;;;;;;12.17;8.80;;;;;;;9.62;50.28;94203.38;6187816;23;20191;-65
2022/01/05 10:26:36;;;;;;;11.20;8.27;;;;;;;9.72;49.57;94217.16;6185067;23;20199;-65
2022/01/05 10:29:17;;;;;;;13.27;8.77;;;;;;;9.83;49.45;94208.13;6160988;23;20222;-64
2022/01/05 10:31:50;;;;;;;13.37;9.43;;;;;;;9.87;49.76;94201.56;6159634;23;20359;-65
2022/01/05 10:34:18;;;;;;;16.03;8.73;;;;;;;9.93;49.53;94198.25;6159218;23;20198;-67
2022/01/05 10:36:44;;;;;;;12.87;9.23;;;;;;;10.13;49.03;94191.66;6160115;23;20218;-65
2022/01/05 10:39:09;;;;;;;11.47;8.43;;;;;;;10.32;48.61;94187.84;6185576;23;20217;-64
2022/01/05 10:41:38;;;;;;;10.83;8.07;;;;;;;10.34;48.14;94182.41;6159977;23;20273;-65
2022/01/05 10:44:11;;;;;;;10.30;8.60;;;;;;;10.57;47.74;94185.91;6162859;23;20202;-65
2022/01/05 10:46:41;;;;;;;13.83;8.77;;;;;;;10.67;47.22;94177.00;6185693;23;20209;-65
2022/01/05 10:49:07;;;;;;;13.77;9.10;;;;;;;10.81;46.94;94178.88;6185986;23;20207;-66
2022/01/05 10:51:33;;;;;;;12.67;8.60;;;;;;;10.91;46.65;94165.53;6188394;23;20182;-67
2022/01/05 10:54:28;;;;;;;10.73;8.43;;;;;;;11.11;45.64;94168.50;6163960;23;20206;-65
2022/01/05 10:56:54;;;;;;;15.93;8.77;;;;;;;11.29;45.76;94170.84;6163525;23;20206;-65
2022/01/05 10:59:34;;;;;;;14.00;8.90;;;;;;;11.35;45.65;94170.13;6163563;23;20223;-65
2022/01/05 11:02:30;;;;;;;10.73;8.10;;;;;;;11.47;45.15;94173.97;6188680;23;20210;-65
2022/01/05 11:05:12;;;;;;;12.40;8.50;;;;;;;11.55;45.09;94167.81;6163834;23;20214;-63
2022/01/05 11:07:39;;;;;;;13.33;8.77;;;;;;;11.65;44.40;94149.94;6185267;23;20206;-67
2022/01/05 11:10:14;;;;;;;10.90;8.03;;;;;;;11.65;44.52;94148.13;6166983;23;20260;-64
2022/01/05 11:12:42;;;;;;;11.53;7.97;;;;;;;11.68;44.38;94153.03;6193321;23;20189;-64
2022/01/05 11:15:23;;;;;;;11.83;8.53;;;;;;;11.91;44.19;94158.25;6168627;23;20178;-65
2022/01/05 11:18:05;;;;;;;14.13;9.50;;;;;;;11.89;44.24;94155.00;6168424;23;20198;-64
2022/01/05 11:20:31;;;;;;;12.63;8.37;;;;;;;11.95;44.09;94147.34;6194799;23;20258;-64
2022/01/05 11:22:56;;;;;;;14.03;9.27;;;;;;;12.35;43.16;94133.72;6193555;23;20202;-64
2022/01/05 11:25:23;;;;;;;9.83;8.53;;;;;;;12.44;43.34;94134.44;6193306;23;20206;-64
2022/01/05 11:27:49;;;;;;;13.70;9.40;;;;;;;12.63;42.58;94119.03;6167386;23;20208;-63